Time;durP1;ratioP1;P1;durP2;ratioP2;P2;SDS_P1;SDS_P2;PMS_P1;PMS_P2;Temp;Humidity;BMP_temperature;BMP_pressure;BME280_temperature;BME280_humidity;BME280_pressure;Samples;Min_cycle;Max_cycle;Signal;HPM_P1;HPM_P2
2021/11/03 00:02:24;;;;;;;0.50;0.50;;;7.70;99.90;;;;;;4440155;32;20155;-68
2021/11/03 00:04:49;;;;;;;0.47;0.47;;;7.60;99.90;;;;;;4441773;32;20128;-68
2021/11/03 00:07:15;;;;;;;0.50;0.50;;;7.50;99.90;;;;;;4442007;32;20076;-68
2021/11/03 00:09:41;;;;;;;0.30;0.30;;;7.40;99.90;;;;;;4440045;32;20076;-68
2021/11/03 00:12:10;;;;;;;0.50;0.50;;;7.40;99.90;;;;;;4441270;32;20395;-68
2021/11/03 00:14:35;;;;;;;0.60;0.60;;;7.50;99.90;;;;;;4426901;32;20541;-68
2021/11/03 00:17:01;;;;;;;0.35;0.35;;;7.60;99.90;;;;;;4441884;32;20108;-68
2021/11/03 00:19:26;;;;;;;0.57;0.57;;;7.60;99.90;;;;;;4442292;32;20060;-67
2021/11/03 00:21:52;;;;;;;0.40;0.40;;;7.50;99.90;;;;;;4442203;32;20409;-68
2021/11/03 00:24:17;;;;;;;0.30;0.30;;;7.40;99.90;;;;;;4443894;32;20124;-68
2021/11/03 00:26:43;;;;;;;0.68;0.68;;;7.30;99.90;;;;;;4444119;32;20082;-67
2021/11/03 00:29:08;;;;;;;0.40;0.40;;;7.10;99.90;;;;;;4441325;32;20458;-68
2021/11/03 00:31:34;;;;;;;0.73;0.50;;;7.20;99.90;;;;;;4442756;32;20065;-67
2021/11/03 00:33:59;;;;;;;19.08;3.53;;;7.30;99.90;;;;;;4442308;32;20559;-68
2021/11/03 00:36:25;;;;;;;0.75;0.75;;;7.30;99.90;;;;;;4441197;32;20117;-68
2021/11/03 00:38:50;;;;;;;0.30;0.30;;;7.30;99.90;;;;;;4441496;32;20061;-67
2021/11/03 00:41:16;;;;;;;0.40;0.40;;;7.30;99.90;;;;;;4441734;32;20060;-68
2021/11/03 00:43:41;;;;;;;1.17;1.08;;;7.10;99.90;;;;;;4441492;32;20137;-68
2021/11/03 00:46:07;;;;;;;0.43;0.43;;;7.10;99.90;;;;;;4440322;32;20065;-68
2021/11/03 00:48:32;;;;;;;0.57;0.57;;;7.00;99.90;;;;;;4442168;32;20137;-68
2021/11/03 00:50:59;;;;;;;0.80;0.80;;;7.00;99.90;;;;;;4441644;32;20531;-68
2021/11/03 00:53:24;;;;;;;0.80;0.80;;;6.90;99.90;;;;;;4439688;32;20472;-68
2021/11/03 00:55:50;;;;;;;0.50;0.50;;;6.90;99.90;;;;;;4440418;32;20143;-68
2021/11/03 00:58:16;;;;;;;0.62;0.62;;;6.90;99.90;;;;;;4441169;32;20085;-68
2021/11/03 01:00:41;;;;;;;0.45;0.45;;;6.80;99.90;;;;;;4442576;32;20072;-68
2021/11/03 01:03:07;;;;;;;0.52;0.52;;;6.70;99.90;;;;;;4441186;32;20081;-68
2021/11/03 01:05:37;;;;;;;0.60;0.60;;;6.50;99.90;;;;;;4440882;32;20097;-67
2021/11/03 01:08:04;;;;;;;1.02;0.95;;;6.50;99.90;;;;;;4440977;32;20116;-68
2021/11/03 01:10:30;;;;;;;3.20;1.15;;;6.40;99.90;;;;;;4442385;32;20068;-68
2021/11/03 01:12:56;;;;;;;1.48;0.68;;;6.40;99.90;;;;;;4442333;32;20087;-68
2021/11/03 01:15:23;;;;;;;5.37;1.30;;;6.40;99.90;;;;;;4440721;32;20073;-68
2021/11/03 01:17:49;;;;;;;0.40;0.40;;;6.50;99.90;;;;;;4441336;32;20089;-67
2021/11/03 01:20:14;;;;;;;0.35;0.35;;;6.60;99.90;;;;;;4440322;32;20100;-68
2021/11/03 01:22:40;;;;;;;0.50;0.50;;;6.60;99.90;;;;;;4440892;32;20088;-67
2021/11/03 01:25:09;;;;;;;0.77;0.60;;;6.60;99.90;;;;;;4440548;32;20183;-68
2021/11/03 01:27:35;;;;;;;0.70;0.70;;;6.60;99.90;;;;;;4439965;32;20487;-68
2021/11/03 01:30:01;;;;;;;1.23;1.12;;;6.60;99.90;;;;;;4441212;32;20089;-68
2021/11/03 01:32:26;;;;;;;0.50;0.50;;;6.60;99.90;;;;;;4440728;32;20318;-67
2021/11/03 01:34:52;;;;;;;6.68;2.15;;;6.30;99.90;;;;;;4441937;32;20081;-68
2021/11/03 01:37:17;;;;;;;0.50;0.50;;;6.10;99.90;;;;;;4441333;32;20086;-67
2021/11/03 01:39:43;;;;;;;0.40;0.40;;;6.00;99.90;;;;;;4441414;32;20077;-68
2021/11/03 01:42:08;;;;;;;0.50;0.50;;;6.20;99.90;;;;;;4441372;32;20100;-68
2021/11/03 01:44:34;;;;;;;0.40;0.40;;;6.30;99.90;;;;;;4441186;32;20081;-68
2021/11/03 01:47:40;;;;;;;0.47;0.47;;;6.20;99.90;;;;;;4427483;32;20451;-68
2021/11/03 01:50:11;;;;;;;0.40;0.40;;;6.20;99.90;;;;;;4423146;32;20064;-68
2021/11/03 01:52:36;;;;;;;;;;;6.20;99.90;;;;;;4442166;32;20056;-67
2021/11/03 01:55:03;;;;;;;0.90;0.45;;;6.20;99.90;;;;;;4441863;32;19956;-68
2021/11/03 01:57:34;;;;;;;3.00;1.15;;;6.20;99.90;;;;;;4441850;32;20069;-67
2021/11/03 02:00:06;;;;;;;0.50;0.50;;;6.10;99.90;;;;;;4441451;32;20433;-67
2021/11/03 02:02:33;;;;;;;0.40;0.40;;;6.10;99.90;;;;;;4439633;32;20139;-67
2021/11/03 02:04:58;;;;;;;0.45;0.45;;;6.10;99.90;;;;;;4439485;32;20115;-67
2021/11/03 02:07:27;;;;;;;0.82;0.82;;;6.10;99.90;;;;;;4441024;32;20522;-67
2021/11/03 02:09:53;;;;;;;0.50;0.50;;;6.10;99.90;;;;;;4440699;32;20057;-67
2021/11/03 02:12:22;;;;;;;4.53;1.12;;;6.00;99.90;;;;;;4441603;32;20132;-67
2021/11/03 02:14:49;;;;;;;0.60;0.60;;;5.90;99.90;;;;;;4440763;32;20060;-68
2021/11/03 02:17:16;;;;;;;0.22;0.22;;;5.80;99.90;;;;;;4439040;32;20081;-68
2021/11/03 02:19:42;;;;;;;0.35;0.35;;;5.70;99.90;;;;;;4440159;32;20065;-67
2021/11/03 02:22:30;;;;;;;0.45;0.45;;;5.60;99.90;;;;;;4439850;32;20522;-67
2021/11/03 02:24:59;;;;;;;2.40;0.90;;;5.70;99.90;;;;;;4430042;32;20093;-68
2021/11/03 02:27:29;;;;;;;0.60;0.60;;;5.60;99.90;;;;;;4439699;32;20064;-66
2021/11/03 02:29:55;;;;;;;2.17;0.62;;;5.60;99.90;;;;;;4440223;32;20069;-68
2021/11/03 02:32:24;;;;;;;0.60;0.60;;;5.60;99.90;;;;;;4440439;32;20061;-67
2021/11/03 02:34:50;;;;;;;0.50;0.50;;;5.60;99.90;;;;;;4426619;32;20097;-67
2021/11/03 02:37:33;;;;;;;0.40;0.40;;;5.70;99.90;;;;;;4441147;32;20156;-67
2021/11/03 02:40:16;;;;;;;0.30;0.30;;;5.60;99.90;;;;;;4441825;32;20072;-67
2021/11/03 02:42:46;;;;;;;0.52;0.52;;;5.70;99.90;;;;;;4440060;32;20069;-68
2021/11/03 02:45:23;;;;;;;21.10;2.40;;;5.60;99.90;;;;;;4439421;32;20411;-67
2021/11/03 02:47:48;;;;;;;0.50;0.50;;;5.60;99.90;;;;;;4436744;32;20085;-67
2021/11/03 02:50:14;;;;;;;0.30;0.30;;;5.60;99.90;;;;;;4438847;32;20053;-67
2021/11/03 02:52:40;;;;;;;0.98;0.93;;;5.60;99.90;;;;;;4439939;32;20124;-67
2021/11/03 02:55:10;;;;;;;3.58;1.02;;;5.60;99.90;;;;;;4440486;32;20534;-67
2021/11/03 02:57:36;;;;;;;0.62;0.62;;;5.60;99.90;;;;;;4440358;32;20058;-66
2021/11/03 03:00:06;;;;;;;0.93;0.70;;;5.50;99.90;;;;;;4439264;32;20700;-67
2021/11/03 03:02:31;;;;;;;0.30;0.30;;;5.50;99.90;;;;;;4440350;32;20102;-67
2021/11/03 03:04:57;;;;;;;2.45;0.93;;;5.50;99.90;;;;;;4441771;32;20339;-67
2021/11/03 03:07:23;;;;;;;0.57;0.57;;;5.60;99.90;;;;;;4440559;32;20547;-67
2021/11/03 03:09:49;;;;;;;0.62;0.62;;;5.60;99.90;;;;;;4438983;32;20076;-67
2021/11/03 03:12:18;;;;;;;0.20;0.20;;;5.50;99.90;;;;;;4441313;32;20093;-67
2021/11/03 03:14:46;;;;;;;0.80;0.75;;;5.40;99.90;;;;;;4438832;32;20089;-67
2021/11/03 03:17:13;;;;;;;0.40;0.40;;;5.50;99.90;;;;;;4441307;32;20112;-66
2021/11/03 03:19:41;;;;;;;1.25;0.77;;;5.60;99.90;;;;;;4442822;32;20089;-67
2021/11/03 03:22:07;;;;;;;0.82;0.82;;;5.60;99.90;;;;;;4441804;32;20116;-67
2021/11/03 03:24:33;;;;;;;0.47;0.47;;;5.50;99.90;;;;;;4441375;32;20108;-67
2021/11/03 03:26:58;;;;;;;0.40;0.40;;;5.40;99.90;;;;;;4444987;32;20085;-67
2021/11/03 03:29:24;;;;;;;0.50;0.50;;;5.40;99.90;;;;;;4442707;32;20119;-67
2021/11/03 03:31:49;;;;;;;0.55;0.55;;;5.30;99.90;;;;;;4441650;32;20187;-67
2021/11/03 03:34:19;;;;;;;0.30;0.30;;;5.30;99.90;;;;;;4441049;32;20112;-67
2021/11/03 03:36:46;;;;;;;0.47;0.47;;;5.20;99.90;;;;;;4442171;32;20571;-67
2021/11/03 03:39:13;;;;;;;0.90;0.90;;;5.10;99.90;;;;;;4441922;32;20193;-67
2021/11/03 03:41:41;;;;;;;0.75;0.60;;;5.10;99.90;;;;;;4443715;32;20493;-67
2021/11/03 03:44:07;;;;;;;10.65;2.47;;;5.10;99.90;;;;;;4444254;32;20072;-67
2021/11/03 03:46:33;;;;;;;0.50;0.50;;;4.90;99.90;;;;;;4443045;32;20065;-67
2021/11/03 03:48:58;;;;;;;0.70;0.70;;;5.00;99.90;;;;;;4444447;32;20072;-66
2021/11/03 03:51:25;;;;;;;0.30;0.30;;;5.10;99.90;;;;;;4443420;32;20072;-66
2021/11/03 03:53:51;;;;;;;0.77;0.45;;;5.30;99.90;;;;;;4441333;32;20069;-66
2021/11/03 03:56:17;;;;;;;0.60;0.60;;;5.40;99.90;;;;;;4442407;32;21430;-66
2021/11/03 03:58:44;;;;;;;0.50;0.50;;;5.20;99.90;;;;;;4444150;32;20530;-66
2021/11/03 04:01:12;;;;;;;0.85;0.43;;;5.30;99.90;;;;;;4441701;32;20072;-66
2021/11/03 04:03:38;;;;;;;0.50;0.50;;;5.20;99.90;;;;;;4427510;32;20107;-66
2021/11/03 04:06:03;;;;;;;0.68;0.68;;;5.20;99.90;;;;;;4441964;32;20428;-66
2021/11/03 04:08:29;;;;;;;0.35;0.35;;;5.10;99.90;;;;;;4441081;32;20554;-66
2021/11/03 04:10:55;;;;;;;0.50;0.50;;;5.20;99.90;;;;;;4441171;32;20179;-66
2021/11/03 04:13:22;;;;;;;0.45;0.45;;;5.30;99.90;;;;;;4441380;32;20077;-67
2021/11/03 04:15:47;;;;;;;0.30;0.30;;;5.40;99.90;;;;;;4440657;32;20077;-67
2021/11/03 04:18:13;;;;;;;0.95;0.95;;;5.40;99.90;;;;;;4440738;32;20093;-67
2021/11/03 04:20:39;;;;;;;2.12;1.50;;;5.50;99.90;;;;;;4440312;32;20076;-67
2021/11/03 04:23:04;;;;;;;0.40;0.40;;;5.60;99.90;;;;;;4442295;32;20490;-67
2021/11/03 04:25:30;;;;;;;8.07;1.05;;;5.50;99.90;;;;;;4440864;32;20072;-67
2021/11/03 04:27:56;;;;;;;0.55;0.55;;;5.50;99.90;;;;;;4441735;32;20535;-67
2021/11/03 04:30:23;;;;;;;0.55;0.55;;;5.30;99.90;;;;;;4440333;32;20064;-67
2021/11/03 04:32:48;;;;;;;0.62;0.50;;;5.10;99.90;;;;;;4437899;32;83555;-67
2021/11/03 04:35:14;;;;;;;0.47;0.47;;;5.00;99.90;;;;;;4441412;32;20076;-67
2021/11/03 04:37:40;;;;;;;2.05;0.60;;;5.00;99.90;;;;;;4441794;32;20093;-67
2021/11/03 04:40:10;;;;;;;0.30;0.30;;;5.00;99.90;;;;;;4441601;32;20077;-67
2021/11/03 04:42:35;;;;;;;0.50;0.50;;;5.10;99.90;;;;;;4439359;32;20061;-67
2021/11/03 04:45:01;;;;;;;0.40;0.40;;;5.00;99.90;;;;;;4440742;32;20092;-67
2021/11/03 04:47:26;;;;;;;0.30;0.30;;;4.90;99.90;;;;;;4442310;32;20078;-67
2021/11/03 04:49:52;;;;;;;3.17;1.33;;;4.80;99.90;;;;;;4443287;32;20069;-67
2021/11/03 04:52:17;;;;;;;0.90;0.60;;;4.90;99.90;;;;;;4440559;32;20119;-67
2021/11/03 04:54:43;;;;;;;0.35;0.35;;;5.00;99.90;;;;;;4442708;32;20586;-67
2021/11/03 04:57:15;;;;;;;0.30;0.30;;;5.00;99.90;;;;;;4440554;32;20069;-67
2021/11/03 04:59:41;;;;;;;43.25;1.50;;;5.10;99.90;;;;;;4440149;32;20135;-67
2021/11/03 05:02:07;;;;;;;0.47;0.47;;;5.00;99.90;;;;;;4441499;32;20064;-67
2021/11/03 05:04:32;;;;;;;0.70;0.70;;;4.90;99.90;;;;;;4442037;32;20311;-67
2021/11/03 05:06:57;;;;;;;0.50;0.50;;;4.90;99.90;;;;;;4440855;32;20057;-67
2021/11/03 05:09:24;;;;;;;0.50;0.50;;;4.80;99.90;;;;;;4440620;32;20072;-67
2021/11/03 05:11:49;;;;;;;0.73;0.60;;;4.70;99.90;;;;;;4442091;32;20064;-67
2021/11/03 05:14:15;;;;;;;0.80;0.75;;;4.70;99.90;;;;;;4441628;32;20097;-67
2021/11/03 05:16:40;;;;;;;0.30;0.30;;;4.60;99.90;;;;;;4440261;32;20093;-67
2021/11/03 05:19:06;;;;;;;1.23;1.12;;;4.60;99.90;;;;;;4440658;32;20061;-67
2021/11/03 05:21:38;;;;;;;0.30;0.30;;;4.70;99.90;;;;;;4432406;32;20097;-67
2021/11/03 05:24:04;;;;;;;0.60;0.60;;;4.70;99.90;;;;;;4437145;32;20157;-67
2021/11/03 05:26:30;;;;;;;1.08;0.82;;;4.80;99.90;;;;;;4442663;32;20089;-67
2021/11/03 05:28:56;;;;;;;0.50;0.50;;;4.80;99.90;;;;;;4440257;32;20177;-67
2021/11/03 05:31:22;;;;;;;0.50;0.50;;;4.70;99.90;;;;;;4440387;32;20065;-67
2021/11/03 05:33:47;;;;;;;0.50;0.50;;;4.70;99.90;;;;;;4439296;32;20123;-67
2021/11/03 05:36:17;;;;;;;1.10;1.00;;;4.70;99.90;;;;;;4441267;32;20158;-68
2021/11/03 05:38:43;;;;;;;0.52;0.52;;;4.60;99.90;;;;;;4440973;32;20068;-68
2021/11/03 05:41:08;;;;;;;0.52;0.52;;;4.60;99.90;;;;;;4442314;32;20119;-68
2021/11/03 05:43:34;;;;;;;0.50;0.50;;;4.60;99.90;;;;;;4440128;32;20089;-67
2021/11/03 05:45:59;;;;;;;0.35;0.35;;;4.70;99.90;;;;;;4437648;32;20081;-67
2021/11/03 05:48:26;;;;;;;0.65;0.65;;;4.70;99.90;;;;;;4440282;32;20080;-67
2021/11/03 05:50:52;;;;;;;0.50;0.50;;;4.60;99.90;;;;;;4440737;32;20060;-67
2021/11/03 05:53:18;;;;;;;0.40;0.40;;;4.60;99.90;;;;;;4439884;32;20502;-67
2021/11/03 05:55:44;;;;;;;0.62;0.62;;;4.60;99.90;;;;;;4440120;32;20073;-67
2021/11/03 05:58:09;;;;;;;1.25;0.50;;;4.70;99.90;;;;;;4442852;32;20097;-67
2021/11/03 06:00:37;;;;;;;0.82;0.80;;;4.60;99.90;;;;;;4437070;32;20119;-67
2021/11/03 06:03:03;;;;;;;0.68;0.68;;;4.60;99.90;;;;;;4430387;32;20119;-67
2021/11/03 06:05:30;;;;;;;0.60;0.60;;;4.70;99.90;;;;;;4422575;32;20098;-67
2021/11/03 06:07:59;;;;;;;0.35;0.35;;;4.60;99.90;;;;;;4437394;32;20065;-67
2021/11/03 06:10:29;;;;;;;0.50;0.50;;;4.50;99.90;;;;;;4439548;32;20092;-67
2021/11/03 06:12:55;;;;;;;0.52;0.52;;;4.50;99.90;;;;;;4433687;32;20240;-67
2021/11/03 06:15:22;;;;;;;0.60;0.60;;;4.50;99.90;;;;;;4438820;32;20121;-67
2021/11/03 06:17:50;;;;;;;0.68;0.68;;;4.50;99.90;;;;;;4423949;32;20249;-67
2021/11/03 06:20:15;;;;;;;1.15;0.55;;;4.40;99.90;;;;;;4436594;32;20113;-67
2021/11/03 06:22:41;;;;;;;1.17;0.60;;;4.50;99.90;;;;;;4439252;32;20068;-67
2021/11/03 06:25:08;;;;;;;1.17;0.93;;;4.60;99.90;;;;;;4436467;32;20103;-68
2021/11/03 06:27:34;;;;;;;1.27;1.08;;;4.60;99.90;;;;;;4422815;32;20132;-66
2021/11/03 06:29:59;;;;;;;0.50;0.50;;;4.90;99.90;;;;;;4433575;32;20656;-67
2021/11/03 06:32:25;;;;;;;0.52;0.52;;;4.80;99.90;;;;;;4411194;32;20084;-67
2021/11/03 06:34:51;;;;;;;0.40;0.40;;;4.80;99.90;;;;;;4432411;32;20073;-66
2021/11/03 06:37:17;;;;;;;0.50;0.50;;;4.70;99.90;;;;;;4428336;32;20072;-67
2021/11/03 06:39:42;;;;;;;1.90;0.65;;;4.80;99.90;;;;;;4428422;32;20069;-67
2021/11/03 06:42:08;;;;;;;1.02;0.52;;;4.80;99.90;;;;;;4432934;32;20072;-68
2021/11/03 06:44:33;;;;;;;3.83;1.60;;;4.80;99.90;;;;;;4426220;32;20108;-67
2021/11/03 06:46:59;;;;;;;1.27;0.95;;;4.80;99.90;;;;;;4428662;32;20486;-67
2021/11/03 06:49:24;;;;;;;0.57;0.57;;;4.90;99.90;;;;;;4428335;32;20768;-67
2021/11/03 06:51:50;;;;;;;2.58;1.27;;;5.00;99.90;;;;;;4427206;32;20076;-67
2021/11/03 06:54:16;;;;;;;0.40;0.40;;;5.00;99.90;;;;;;4433515;32;20158;-68
2021/11/03 06:56:41;;;;;;;0.73;0.73;;;5.00;99.90;;;;;;4431841;32;20593;-67
2021/11/03 06:59:07;;;;;;;0.70;0.70;;;5.10;99.90;;;;;;4430481;32;20077;-68
2021/11/03 07:01:34;;;;;;;0.50;0.50;;;5.30;99.90;;;;;;4433280;32;20105;-68
2021/11/03 07:04:00;;;;;;;0.65;0.65;;;5.30;99.90;;;;;;4430100;32;20146;-68
2021/11/03 07:06:26;;;;;;;0.60;0.60;;;5.30;99.90;;;;;;4431356;32;20116;-68
2021/11/03 07:08:54;;;;;;;0.70;0.70;;;5.40;99.90;;;;;;4423838;32;20971;-68
2021/11/03 07:11:20;;;;;;;0.62;0.62;;;5.50;99.90;;;;;;4418825;32;20223;-68
2021/11/03 07:13:46;;;;;;;0.45;0.45;;;5.50;99.90;;;;;;4422750;32;20089;-68
2021/11/03 07:16:13;;;;;;;1.48;0.73;;;5.50;99.90;;;;;;4421606;32;20097;-68
2021/11/03 07:18:39;;;;;;;0.70;0.70;;;5.50;99.90;;;;;;4409044;32;20250;-68
2021/11/03 07:21:05;;;;;;;0.85;0.62;;;5.50;99.90;;;;;;4407863;32;20097;-68
2021/11/03 07:23:31;;;;;;;3.95;1.15;;;5.70;99.90;;;;;;4410171;32;20256;-68
2021/11/03 07:25:57;;;;;;;2.60;1.05;;;5.70;99.90;;;;;;4406027;32;20258;-68
2021/11/03 07:28:23;;;;;;;0.80;0.80;;;5.80;99.90;;;;;;4405393;32;20254;-69
2021/11/03 07:30:50;;;;;;;3.42;1.45;;;5.80;99.90;;;;;;4412962;32;20123;-68
2021/11/03 07:33:16;;;;;;;13.62;0.60;;;5.90;99.90;;;;;;4426090;32;20566;-67
2021/11/03 07:35:43;;;;;;;1.12;0.80;;;6.00;99.90;;;;;;4424926;32;21056;-66
2021/11/03 07:38:10;;;;;;;2.20;0.80;;;6.10;99.90;;;;;;4429502;32;20559;-67
2021/11/03 07:40:42;;;;;;;0.90;0.85;;;6.20;99.90;;;;;;4422834;32;20451;-67
2021/11/03 07:43:09;;;;;;;0.57;0.57;;;6.30;99.90;;;;;;4428478;32;20469;-67
2021/11/03 07:45:36;;;;;;;0.80;0.80;;;6.20;99.90;;;;;;4426682;32;21219;-67
2021/11/03 07:48:03;;;;;;;0.55;0.55;;;6.40;99.90;;;;;;4426365;32;20143;-67
2021/11/03 07:50:32;;;;;;;0.77;0.70;;;6.40;99.90;;;;;;4429129;32;20085;-66
2021/11/03 07:52:58;;;;;;;1.05;1.02;;;6.40;99.90;;;;;;4427072;32;20061;-67
2021/11/03 07:55:25;;;;;;;4.70;1.30;;;6.40;99.90;;;;;;4429872;32;20080;-67
2021/11/03 07:57:51;;;;;;;0.80;0.80;;;6.40;99.90;;;;;;4430460;32;20228;-67
2021/11/03 08:00:22;;;;;;;5.00;1.23;;;6.50;99.90;;;;;;4429669;32;20557;-67
2021/11/03 08:02:48;;;;;;;3.10;1.00;;;6.60;99.90;;;;;;4429878;32;20383;-67
2021/11/03 08:05:14;;;;;;;0.50;0.50;;;6.70;99.90;;;;;;4428544;32;20753;-67
2021/11/03 08:07:39;;;;;;;0.65;0.65;;;6.70;99.90;;;;;;4426925;32;20080;-67
2021/11/03 08:10:12;;;;;;;29.77;1.37;;;6.60;99.90;;;;;;4426872;32;20088;-67
2021/11/03 08:12:37;;;;;;;5.93;1.15;;;6.70;99.90;;;;;;4428931;32;20081;-66
2021/11/03 08:15:03;;;;;;;0.55;0.55;;;6.70;99.90;;;;;;4431014;32;20088;-67
2021/11/03 08:17:29;;;;;;;1.27;1.15;;;6.70;99.90;;;;;;4430951;32;20069;-66
2021/11/03 08:19:57;;;;;;;2.67;1.20;;;6.80;99.90;;;;;;4429373;32;22296;-67
2021/11/03 08:22:24;;;;;;;0.50;0.50;;;6.70;99.90;;;;;;4434689;32;20097;-67
2021/11/03 08:24:52;;;;;;;1.48;1.30;;;6.70;99.90;;;;;;4431390;32;20101;-66
2021/11/03 08:27:19;;;;;;;0.70;0.70;;;6.90;99.90;;;;;;4421980;32;20129;-66
2021/11/03 08:29:46;;;;;;;0.68;0.68;;;6.90;99.90;;;;;;4420389;32;20211;-67
2021/11/03 08:32:15;;;;;;;1.37;1.08;;;7.00;99.90;;;;;;4414185;32;20174;-66
2021/11/03 08:34:41;;;;;;;0.80;0.80;;;7.00;99.90;;;;;;4419897;32;20096;-67
2021/11/03 08:37:11;;;;;;;1.67;1.25;;;7.20;99.90;;;;;;4415796;32;20473;-67
2021/11/03 08:39:39;;;;;;;1.27;0.95;;;7.30;99.90;;;;;;4419664;32;21389;-67
2021/11/03 08:42:05;;;;;;;8.52;1.42;;;7.40;99.90;;;;;;4418583;32;20661;-68
2021/11/03 08:44:31;;;;;;;2.00;1.25;;;7.40;99.90;;;;;;4421283;32;20084;-67
2021/11/03 08:46:57;;;;;;;3.92;0.80;;;7.50;99.90;;;;;;4423255;32;20471;-67
2021/11/03 08:49:23;;;;;;;1.98;1.12;;;7.50;99.90;;;;;;4425132;32;20371;-67
2021/11/03 08:51:48;;;;;;;2.42;1.60;;;7.50;99.90;;;;;;4414175;32;21788;-68
2021/11/03 08:54:17;;;;;;;1.60;1.23;;;7.50;99.90;;;;;;4415356;32;20160;-68
2021/11/03 08:56:43;;;;;;;0.60;0.60;;;7.60;99.90;;;;;;4412547;32;20109;-68
2021/11/03 08:59:09;;;;;;;0.40;0.40;;;7.80;99.90;;;;;;4410495;32;20104;-67
2021/11/03 09:01:39;;;;;;;0.43;0.43;;;7.80;99.90;;;;;;4406985;32;20105;-67
2021/11/03 09:04:04;;;;;;;1.17;1.08;;;7.90;99.90;;;;;;4414684;32;20407;-68
2021/11/03 09:06:30;;;;;;;0.40;0.40;;;8.00;99.90;;;;;;4415546;32;20093;-68
2021/11/03 09:08:56;;;;;;;0.40;0.40;;;8.00;99.90;;;;;;4421290;32;21584;-68
2021/11/03 09:11:21;;;;;;;0.73;0.73;;;8.10;99.90;;;;;;4421224;32;20432;-68
2021/11/03 09:13:49;;;;;;;1.10;0.90;;;8.20;99.90;;;;;;4417659;32;20151;-68
2021/11/03 09:16:16;;;;;;;0.37;0.37;;;8.40;99.90;;;;;;4419968;32;20069;-68
2021/11/03 09:18:42;;;;;;;0.73;0.73;;;8.50;99.90;;;;;;4423421;32;20211;-68
2021/11/03 09:21:08;;;;;;;0.47;0.47;;;8.50;99.90;;;;;;4423789;32;20351;-68
2021/11/03 09:23:35;;;;;;;0.85;0.70;;;8.50;99.90;;;;;;4430747;32;20081;-68
2021/11/03 09:26:01;;;;;;;0.50;0.50;;;8.40;99.90;;;;;;4422541;32;20061;-68
2021/11/03 09:28:29;;;;;;;0.80;0.52;;;8.50;99.90;;;;;;4423027;32;20092;-68
2021/11/03 09:30:56;;;;;;;0.60;0.60;;;8.60;99.90;;;;;;4422585;32;21179;-68
2021/11/03 09:33:22;;;;;;;0.65;0.65;;;8.70;99.90;;;;;;4419858;32;20069;-68
2021/11/03 09:35:50;;;;;;;3.45;0.80;;;8.80;99.90;;;;;;4421931;32;20111;-68
2021/11/03 09:38:20;;;;;;;7.65;1.95;;;8.80;99.90;;;;;;4420110;32;20131;-68
2021/11/03 09:40:51;;;;;;;0.93;0.93;;;8.90;99.90;;;;;;4426271;32;21143;-66
2021/11/03 09:43:26;;;;;;;;;;;9.10;99.90;;;;;;4424886;32;20432;-66
2021/11/03 09:45:52;;;;;;;1.95;0.70;;;9.20;99.90;;;;;;4424959;32;20261;-66
2021/11/03 09:48:24;;;;;;;0.75;0.75;;;9.20;99.90;;;;;;4423579;32;20073;-65
2021/11/03 09:50:56;;;;;;;2.30;1.55;;;9.20;99.90;;;;;;4423925;32;20077;-65
2021/11/03 09:53:27;;;;;;;0.98;0.93;;;9.30;99.90;;;;;;4429502;32;20072;-65
2021/11/03 09:55:53;;;;;;;1.90;0.70;;;9.40;99.90;;;;;;4421862;32;20605;-66
2021/11/03 09:58:47;;;;;;;2.37;1.05;;;9.50;99.90;;;;;;4425549;32;20078;-65
2021/11/03 10:01:29;;;;;;;0.52;0.52;;;9.50;99.90;;;;;;4414219;32;20654;-65
2021/11/03 10:04:28;;;;;;;1.05;0.75;;;9.50;99.90;;;;;;4423350;32;20080;-65
2021/11/03 10:07:06;;;;;;;1.02;0.93;;;9.60;99.90;;;;;;4411289;32;20096;-65
2021/11/03 10:09:32;;;;;;;0.57;0.57;;;9.80;99.90;;;;;;4425185;32;20152;-67
2021/11/03 10:11:59;;;;;;;0.70;0.70;;;9.80;99.90;;;;;;4425199;32;20097;-66
2021/11/03 10:14:26;;;;;;;0.80;0.80;;;9.80;99.90;;;;;;4420123;32;20572;-67
2021/11/03 10:16:56;;;;;;;3.05;1.87;;;9.70;99.90;;;;;;4414907;32;20819;-67
2021/11/03 10:19:29;;;;;;;0.30;0.30;;;9.80;99.90;;;;;;4417019;32;20144;-67
2021/11/03 10:21:59;;;;;;;1.65;1.27;;;9.70;99.90;;;;;;4415199;32;20768;-64
2021/11/03 10:24:32;;;;;;;1.05;0.57;;;9.80;99.90;;;;;;4414116;32;20077;-67
2021/11/03 10:27:11;;;;;;;4.47;1.70;;;9.80;99.90;;;;;;4422030;32;20097;-67
2021/11/03 10:29:41;;;;;;;0.50;0.50;;;9.90;99.90;;;;;;4425645;32;20088;-66
2021/11/03 10:32:10;;;;;;;0.65;0.65;;;9.90;99.90;;;;;;4408408;32;20093;-67
2021/11/03 10:34:41;;;;;;;5.20;0.90;;;9.90;99.90;;;;;;4417581;32;20105;-67
2021/11/03 10:37:12;;;;;;;0.40;0.40;;;9.90;99.90;;;;;;4417910;32;20541;-67
2021/11/03 10:39:59;;;;;;;0.40;0.40;;;9.90;99.90;;;;;;4421926;32;20545;-66
2021/11/03 10:42:31;;;;;;;2.60;0.88;;;9.90;99.90;;;;;;4412162;32;20072;-66
2021/11/03 10:45:21;;;;;;;0.65;0.62;;;10.10;99.90;;;;;;4421874;32;20143;-67
2021/11/03 10:47:52;;;;;;;0.80;0.80;;;10.20;99.90;;;;;;4407363;32;20213;-66
2021/11/03 10:50:40;;;;;;;3.42;0.70;;;10.40;99.90;;;;;;4422107;32;20092;-67
2021/11/03 10:53:18;;;;;;;0.80;0.80;;;10.40;99.90;;;;;;4424397;32;20263;-66
2021/11/03 10:56:09;;;;;;;0.47;0.47;;;10.30;99.90;;;;;;4422328;32;20060;-66
2021/11/03 10:58:56;;;;;;;0.57;0.57;;;10.50;99.90;;;;;;4401821;32;20160;-66
2021/11/03 11:01:24;;;;;;;0.55;0.55;;;10.60;99.90;;;;;;4405813;32;20101;-67
2021/11/03 11:04:12;;;;;;;0.50;0.50;;;10.60;99.90;;;;;;4410461;32;20105;-66
2021/11/03 11:06:43;;;;;;;0.40;0.40;;;10.70;99.90;;;;;;4417506;32;21204;-67
2021/11/03 11:09:11;;;;;;;0.60;0.60;;;10.70;99.90;;;;;;4417301;32;20101;-67
2021/11/03 11:11:40;;;;;;;0.98;0.70;;;10.80;99.90;;;;;;4415864;32;20078;-67
2021/11/03 11:14:17;;;;;;;0.43;0.43;;;10.90;99.90;;;;;;4411587;32;20113;-67
2021/11/03 11:16:57;;;;;;;0.52;0.52;;;11.00;99.90;;;;;;4406668;32;20065;-67
2021/11/03 11:19:35;;;;;;;1.08;0.62;;;11.10;99.90;;;;;;4410836;32;20104;-68
2021/11/03 11:22:12;;;;;;;0.50;0.50;;;11.10;99.90;;;;;;4422032;32;20101;-68
2021/11/03 11:24:59;;;;;;;0.57;0.57;;;11.10;99.90;;;;;;4423922;32;20490;-68
2021/11/03 11:27:33;;;;;;;0.98;0.60;;;11.20;99.90;;;;;;4411402;32;20108;-68
2021/11/03 11:30:16;;;;;;;0.77;0.60;;;11.80;99.90;;;;;;4408695;32;20583;-68
2021/11/03 11:32:54;;;;;;;0.45;0.45;;;12.40;99.90;;;;;;4422170;32;20435;-66
2021/11/03 11:35:54;;;;;;;0.40;0.40;;;12.80;99.90;;;;;;4425860;32;20094;-66
2021/11/03 11:38:33;;;;;;;0.60;0.57;;;13.30;99.90;;;;;;4409215;32;20231;-66
2021/11/03 11:41:10;;;;;;;0.40;0.40;;;13.80;99.90;;;;;;4425352;32;20096;-67
2021/11/03 11:43:42;;;;;;;0.50;0.50;;;14.10;99.90;;;;;;4424466;32;20092;-66
2021/11/03 11:46:15;;;;;;;0.77;0.77;;;14.30;99.90;;;;;;4429357;32;20636;-66
2021/11/03 11:48:42;;;;;;;0.35;0.35;;;14.30;99.90;;;;;;4416171;32;20080;-67
2021/11/03 11:51:13;;;;;;;0.40;0.40;;;14.30;99.90;;;;;;4421268;32;20496;-68
2021/11/03 11:54:01;;;;;;;0.50;0.50;;;14.50;99.90;;;;;;4418496;32;20933;-67
2021/11/03 11:56:32;;;;;;;0.50;0.50;;;14.90;99.90;;;;;;4406238;32;20073;-68
2021/11/03 11:59:05;;;;;;;0.52;0.52;;;14.90;99.90;;;;;;4418993;32;20093;-68
2021/11/03 12:01:54;;;;;;;0.57;0.57;;;15.10;99.90;;;;;;4420730;32;20100;-68
2021/11/03 12:04:23;;;;;;;0.88;0.73;;;15.20;99.90;;;;;;4398159;32;20097;-68
2021/11/03 12:06:54;;;;;;;1.00;0.50;;;15.40;99.90;;;;;;4419686;32;20085;-68
2021/11/03 12:09:42;;;;;;;0.50;0.50;;;15.70;99.90;;;;;;4422959;32;20090;-69
2021/11/03 12:12:13;;;;;;;0.35;0.35;;;15.70;99.90;;;;;;4408557;32;20189;-68
2021/11/03 12:14:45;;;;;;;0.40;0.40;;;16.10;99.90;;;;;;4421169;32;20708;-69
2021/11/03 12:17:17;;;;;;;0.40;0.40;;;16.20;99.90;;;;;;4422091;32;20080;-68
2021/11/03 12:19:49;;;;;;;0.47;0.47;;;16.40;99.90;;;;;;4424762;32;20117;-68
2021/11/03 12:22:29;;;;;;;0.43;0.43;;;16.30;99.90;;;;;;4424314;32;20294;-67
2021/11/03 12:25:17;;;;;;;0.40;0.40;;;16.40;99.90;;;;;;4421859;32;20701;-69
2021/11/03 12:27:47;;;;;;;0.50;0.50;;;16.40;99.90;;;;;;4411026;32;20605;-68
2021/11/03 12:30:15;;;;;;;0.98;0.95;;;16.30;99.90;;;;;;4423177;32;20085;-68
2021/11/03 12:32:56;;;;;;;0.47;0.43;;;16.20;99.90;;;;;;4422080;32;20101;-68
2021/11/03 12:35:24;;;;;;;0.40;0.40;;;16.30;99.90;;;;;;4416975;32;20089;-68
2021/11/03 12:37:58;;;;;;;0.40;0.40;;;16.30;99.90;;;;;;4417913;32;20796;-68
2021/11/03 12:40:42;;;;;;;0.40;0.40;;;16.30;99.90;;;;;;4408617;32;20737;-67
2021/11/03 12:43:29;;;;;;;0.40;0.40;;;16.10;99.90;;;;;;4399011;32;20522;-70
2021/11/03 12:46:09;;;;;;;0.43;0.43;;;16.30;99.90;;;;;;4414405;32;20089;-68
2021/11/03 12:48:48;;;;;;;0.40;0.40;;;16.20;99.90;;;;;;4394897;32;20084;-69
2021/11/03 12:51:17;;;;;;;0.43;0.43;;;16.00;99.90;;;;;;4414793;32;20119;-65
2021/11/03 12:53:54;;;;;;;0.50;0.50;;;16.00;99.90;;;;;;4427260;32;20069;-69
2021/11/03 12:56:26;;;;;;;0.32;0.32;;;15.60;99.90;;;;;;4421948;32;20073;-68
2021/11/03 12:58:56;;;;;;;0.43;0.43;;;15.10;99.90;;;;;;4413758;32;20081;-68
2021/11/03 13:01:32;;;;;;;0.40;0.40;;;14.80;99.90;;;;;;4411082;32;20097;-68
2021/11/03 13:04:02;;;;;;;0.40;0.40;;;14.40;99.90;;;;;;4418074;32;20109;-66
2021/11/03 13:06:47;;;;;;;0.40;0.40;;;14.20;99.90;;;;;;4415826;32;20532;-69